Time;durP1;ratioP1;P1;durP2;ratioP2;P2;SDS_P1;SDS_P2;PMS_P1;PMS_P2;Temp;Humidity;BMP_temperature;BMP_pressure;BME280_temperature;BME280_humidity;BME280_pressure;Samples;Min_cycle;Max_cycle;Signal;HPM_P1;HPM_P2
2020/12/25 00:02:09;;;;;;;17.35;9.40;;;;;;;-3.67;76.61;100251.59;1679231;85;21388;-78
2020/12/25 00:05:15;;;;;;;21.37;9.80;;;;;;;-3.66;76.75;100250.66;1680033;85;21383;-79
2020/12/25 00:08:22;;;;;;;19.45;8.75;;;;;;;-3.64;76.80;100258.11;1678675;85;21348;-79
2020/12/25 00:11:28;;;;;;;15.95;8.25;;;;;;;-3.62;76.80;100257.56;1680254;85;21332;-78
2020/12/25 00:14:34;;;;;;;18.00;8.65;;;;;;;-3.59;76.84;100253.36;1680309;85;21320;-79
2020/12/25 00:17:42;;;;;;;18.17;9.78;;;;;;;-3.54;76.41;100245.08;1679565;85;22612;-79
2020/12/25 00:20:49;;;;;;;16.40;8.88;;;;;;;-3.47;76.64;100240.63;1680324;85;21262;-78
2020/12/25 00:23:54;;;;;;;17.90;8.85;;;;;;;-3.38;76.34;100246.78;1679141;85;21860;-79
2020/12/25 00:27:01;;;;;;;18.15;9.25;;;;;;;-3.30;76.16;100238.77;1680398;85;21230;-78
2020/12/25 00:30:06;;;;;;;19.00;10.60;;;;;;;-3.30;75.26;100236.09;1680321;85;21278;-78
2020/12/25 00:33:11;;;;;;;15.18;8.45;;;;;;;-3.36;75.24;100240.00;1679278;85;21344;-79
2020/12/25 00:36:16;;;;;;;16.12;8.75;;;;;;;-3.40;75.32;100234.44;1679184;84;21320;-78
2020/12/25 00:39:23;;;;;;;21.35;9.65;;;;;;;-3.42;75.65;100217.63;1679142;85;21340;-79
2020/12/25 00:42:29;;;;;;;16.30;9.48;;;;;;;-3.46;75.58;100214.27;1679855;85;21214;-79
2020/12/25 00:45:35;;;;;;;20.43;9.70;;;;;;;-3.52;75.80;100202.60;1673904;85;21848;-79
2020/12/25 00:48:41;;;;;;;20.90;9.45;;;;;;;-3.56;76.08;100205.06;1674086;85;21767;-79
2020/12/25 00:51:48;;;;;;;21.85;10.93;;;;;;;-3.58;76.54;100190.91;1675188;85;21384;-79
2020/12/25 00:54:55;;;;;;;22.07;9.93;;;;;;;-3.61;76.90;100185.76;1675163;85;21616;-78
2020/12/25 00:58:01;;;;;;;22.20;10.00;;;;;;;-3.65;77.06;100190.89;1674244;85;21353;-78
2020/12/25 01:01:06;;;;;;;23.85;10.10;;;;;;;-3.69;77.17;100193.35;1675084;85;21309;-78
2020/12/25 01:04:13;;;;;;;19.70;10.80;;;;;;;-3.74;77.50;100187.41;1674024;85;21393;-78
2020/12/25 01:07:19;;;;;;;22.82;11.00;;;;;;;-3.78;77.84;100176.51;1658752;86;21266;-78
2020/12/25 01:10:26;;;;;;;21.20;10.35;;;;;;;-3.82;78.14;100164.27;1673856;85;21218;-78
2020/12/25 01:13:31;;;;;;;24.00;10.38;;;;;;;-3.84;78.58;100160.84;1674654;85;21246;-78
2020/12/25 01:16:40;;;;;;;26.23;10.72;;;;;;;-3.83;79.05;100162.08;1675513;85;21203;-78
2020/12/25 01:19:46;;;;;;;20.30;10.15;;;;;;;-3.81;79.19;100156.63;1675126;85;21266;-78
2020/12/25 01:22:52;;;;;;;21.12;11.08;;;;;;;-3.83;79.08;100154.53;1675216;85;21341;-79
2020/12/25 01:25:58;;;;;;;17.30;9.45;;;;;;;-3.83;79.00;100152.72;1675213;85;21868;-79
2020/12/25 01:29:08;;;;;;;24.32;10.55;;;;;;;-3.81;79.13;100139.26;1675311;85;21336;-78
2020/12/25 01:32:13;;;;;;;19.98;10.03;;;;;;;-3.81;78.93;100138.81;1658830;86;21224;-78
2020/12/25 01:35:19;;;;;;;23.10;11.03;;;;;;;-3.81;79.16;100147.28;1674974;85;21321;-79
2020/12/25 01:38:25;;;;;;;21.80;10.98;;;;;;;-3.81;79.30;100142.82;1674038;84;21325;-79
2020/12/25 01:41:32;;;;;;;20.02;10.03;;;;;;;-3.77;79.43;100138.98;1675209;85;21203;-79
2020/12/25 01:44:38;;;;;;;19.92;10.40;;;;;;;-3.70;79.42;100130.16;1674578;85;21293;-78
2020/12/25 01:47:44;;;;;;;21.40;11.03;;;;;;;-3.64;79.33;100129.78;1675239;85;21322;-78
2020/12/25 01:50:51;;;;;;;20.35;10.45;;;;;;;-3.64;79.35;100128.45;1658907;86;21340;-78
2020/12/25 01:53:56;;;;;;;26.87;11.45;;;;;;;-3.62;79.39;100124.74;1674690;85;21349;-78
2020/12/25 01:57:03;;;;;;;26.20;11.28;;;;;;;-3.59;79.44;100125.02;1675160;85;21199;-79
2020/12/25 02:00:12;;;;;;;23.00;11.22;;;;;;;-3.61;79.30;100115.77;1675192;85;21333;-79
2020/12/25 02:03:17;;;;;;;23.77;11.63;;;;;;;-3.63;79.53;100115.45;1675454;85;21384;-79
2020/12/25 02:06:23;;;;;;;24.77;11.65;;;;;;;-3.61;79.71;100121.59;1675297;85;21373;-78
2020/12/25 02:09:29;;;;;;;26.65;11.33;;;;;;;-3.63;80.08;100124.33;1674475;85;21350;-79
2020/12/25 02:12:34;;;;;;;26.75;11.95;;;;;;;-3.66;80.42;100117.85;1658746;86;21366;-79
2020/12/25 02:15:40;;;;;;;22.55;12.35;;;;;;;-3.73;80.91;100109.80;1675024;85;21226;-79
2020/12/25 02:18:45;;;;;;;22.40;12.55;;;;;;;-3.77;81.36;100113.59;1673969;85;21326;-79
2020/12/25 02:21:52;;;;;;;23.15;12.20;;;;;;;-3.79;81.23;100118.66;1675116;85;21321;-78
2020/12/25 02:24:58;;;;;;;24.15;11.60;;;;;;;-3.86;81.16;100104.34;1674475;85;21369;-79
2020/12/25 02:28:04;;;;;;;24.18;12.20;;;;;;;-3.95;81.44;100107.55;1675032;85;21322;-79
2020/12/25 02:31:11;;;;;;;29.60;13.08;;;;;;;-4.05;81.79;100106.33;1674976;85;21302;-79
2020/12/25 02:34:16;;;;;;;19.35;10.85;;;;;;;-4.12;82.24;100103.64;1675006;85;21285;-78
2020/12/25 02:37:22;;;;;;;36.63;12.78;;;;;;;-4.22;82.64;100090.44;1673898;84;21385;-78
2020/12/25 02:40:28;;;;;;;29.12;13.48;;;;;;;-4.31;83.00;100101.64;1674291;85;21337;-79
2020/12/25 02:43:34;;;;;;;32.65;13.22;;;;;;;-4.36;83.42;100097.90;1673939;85;21199;-78
2020/12/25 02:46:40;;;;;;;31.33;15.10;;;;;;;-4.38;83.78;100108.64;1681689;85;21348;-79
2020/12/25 02:49:47;;;;;;;34.05;14.83;;;;;;;-4.43;84.08;100096.03;1685075;85;21333;-79
2020/12/25 02:52:53;;;;;;;29.65;13.85;;;;;;;-4.45;84.37;100086.41;1684862;85;21325;-78
2020/12/25 02:55:59;;;;;;;24.40;14.55;;;;;;;-4.48;84.63;100086.56;1683538;85;21958;-79
2020/12/25 02:59:05;;;;;;;29.65;14.05;;;;;;;-4.50;84.75;100090.66;1685115;85;21349;-78
2020/12/25 03:02:09;;;;;;;25.15;13.93;;;;;;;-4.51;84.88;100091.63;1684852;85;21198;-79
2020/12/25 03:05:15;;;;;;;27.93;13.75;;;;;;;-4.52;85.10;100081.00;1660824;86;21323;-79
2020/12/25 03:08:21;;;;;;;25.12;13.20;;;;;;;-4.54;85.36;100078.91;1683750;85;21848;-78
2020/12/25 03:11:28;;;;;;;31.02;15.10;;;;;;;-4.57;85.56;100070.59;1683842;85;21763;-79
2020/12/25 03:14:33;;;;;;;27.80;14.73;;;;;;;-4.57;85.87;100075.06;1684844;85;21359;-79
2020/12/25 03:17:40;;;;;;;28.10;15.25;;;;;;;-4.56;86.13;100075.45;1684989;85;21324;-78
2020/12/25 03:20:46;;;;;;;31.93;15.00;;;;;;;-4.57;86.47;100073.26;1684848;85;21291;-79
2020/12/25 03:23:51;;;;;;;24.15;12.85;;;;;;;-4.58;86.84;100050.19;1684943;85;21785;-78
2020/12/25 03:26:56;;;;;;;30.35;14.55;;;;;;;-4.58;87.06;100056.86;1685010;85;21336;-79
2020/12/25 03:30:02;;;;;;;29.12;15.10;;;;;;;-4.56;87.24;100054.98;1684914;85;21313;-79
2020/12/25 03:33:08;;;;;;;35.50;15.40;;;;;;;-4.54;87.59;100049.55;1683752;85;21202;-79
2020/12/25 03:36:15;;;;;;;30.70;15.90;;;;;;;-4.54;87.90;100039.73;1683692;84;21650;-79
2020/12/25 03:39:21;;;;;;;34.70;16.87;;;;;;;-4.52;88.17;100048.49;1685092;85;21332;-78
2020/12/25 03:42:27;;;;;;;30.25;16.12;;;;;;;-4.49;88.54;100045.66;1661201;86;21244;-78
2020/12/25 03:45:34;;;;;;;34.00;16.73;;;;;;;-4.48;88.79;100039.84;1684365;85;21750;-78
2020/12/25 03:48:40;;;;;;;31.60;16.70;;;;;;;-4.46;89.07;100041.97;1684978;85;21325;-78
2020/12/25 03:51:46;;;;;;;29.92;14.58;;;;;;;-4.43;89.29;100045.30;1661411;86;21319;-78
2020/12/25 03:54:52;;;;;;;32.42;16.50;;;;;;;-4.38;89.56;100038.36;1684911;85;21190;-78
2020/12/25 03:57:57;;;;;;;30.62;15.60;;;;;;;-4.34;89.73;100032.38;1684971;85;21210;-79
2020/12/25 04:01:02;;;;;;;34.63;17.80;;;;;;;-4.30;89.92;100033.92;1685034;85;21324;-79
2020/12/25 04:04:08;;;;;;;40.75;19.35;;;;;;;-4.26;90.09;100036.81;1685048;85;21325;-79
2020/12/25 04:07:14;;;;;;;30.88;15.95;;;;;;;-4.22;90.31;100034.34;1684641;85;22031;-79
2020/12/25 04:10:19;;;;;;;31.42;16.93;;;;;;;-4.15;90.50;100029.02;1661333;86;21330;-79
2020/12/25 04:13:25;;;;;;;33.13;16.77;;;;;;;-4.10;90.65;100022.92;1683422;85;21380;-78
2020/12/25 04:16:31;;;;;;;37.55;17.25;;;;;;;-4.08;90.74;100018.84;1660641;86;21311;-79
2020/12/25 04:19:37;;;;;;;40.88;17.77;;;;;;;-4.03;90.95;100016.28;1684819;85;21749;-78
2020/12/25 04:22:44;;;;;;;32.45;17.77;;;;;;;-3.99;91.11;100028.52;1661601;86;21355;-79
2020/12/25 04:25:50;;;;;;;33.13;16.37;;;;;;;-3.98;91.23;100024.02;1684822;85;21333;-79
2020/12/25 04:28:55;;;;;;;31.33;16.95;;;;;;;-3.96;91.41;100014.95;1685293;85;21203;-79
2020/12/25 04:32:01;;;;;;;31.23;18.20;;;;;;;-3.92;91.62;100012.96;1684997;85;21233;-79
2020/12/25 04:35:07;;;;;;;30.57;17.60;;;;;;;-3.86;91.79;100015.25;1685136;85;21781;-79
2020/12/25 04:38:13;;;;;;;33.83;17.12;;;;;;;-3.82;92.03;100003.91;1684304;84;21849;-78
2020/12/25 04:41:19;;;;;;;33.23;17.27;;;;;;;-3.75;92.28;100001.27;1685093;85;21314;-78
2020/12/25 04:44:25;;;;;;;33.10;17.17;;;;;;;-3.72;92.47;99997.91;1685208;85;21352;-78
2020/12/25 04:47:30;;;;;;;30.82;15.68;;;;;;;-3.68;92.59;99995.91;1660308;86;21375;-78
2020/12/25 04:50:36;;;;;;;35.40;18.52;;;;;;;-3.64;92.71;99991.63;1674691;85;21853;-78
2020/12/25 04:53:43;;;;;;;35.52;18.32;;;;;;;-3.59;92.82;99988.67;1675162;85;21335;-78
2020/12/25 04:56:49;;;;;;;23.27;13.30;;;;;;;-3.56;92.93;99982.28;1674474;85;21365;-78
2020/12/25 04:59:55;;;;;;;32.83;17.48;;;;;;;-3.53;93.10;99964.22;1675236;85;21357;-78
2020/12/25 05:03:00;;;;;;;33.20;18.20;;;;;;;-3.48;93.31;99968.83;1675185;85;21849;-78
2020/12/25 05:06:14;;;;;;;34.43;18.20;;;;;;;-3.43;93.54;99959.19;1674992;85;21881;-78
2020/12/25 05:09:24;;;;;;;28.85;16.62;;;;;;;-3.37;93.77;99955.63;1674962;85;21211;-78
2020/12/25 05:12:34;;;;;;;32.00;17.67;;;;;;;-3.31;94.00;99949.51;1674654;85;21364;-78
2020/12/25 05:15:39;;;;;;;30.37;17.00;;;;;;;-3.27;94.20;99954.56;1656204;85;22569;-78
2020/12/25 05:18:50;;;;;;;29.30;16.70;;;;;;;-3.23;94.41;99940.53;1675173;85;21845;-78
2020/12/25 05:21:57;;;;;;;34.50;17.85;;;;;;;-3.18;94.59;99949.12;1675155;85;21821;-78
2020/12/25 05:25:05;;;;;;;33.58;17.73;;;;;;;-3.13;94.77;99931.80;1675030;85;21163;-78
2020/12/25 05:28:18;;;;;;;33.85;17.62;;;;;;;-3.08;94.88;99944.89;1673326;85;21226;-78
2020/12/25 05:31:25;;;;;;;30.30;16.48;;;;;;;-3.05;95.04;99929.98;1673768;85;21382;-78
2020/12/25 05:34:32;;;;;;;30.50;17.42;;;;;;;-3.02;95.18;99928.42;1675168;85;21318;-78
2020/12/25 05:37:45;;;;;;;34.73;18.67;;;;;;;-2.99;95.31;99926.05;1674497;84;21371;-79
2020/12/25 05:40:51;;;;;;;28.57;15.93;;;;;;;-2.95;95.46;99916.86;1675108;85;22188;-79
2020/12/25 05:43:57;;;;;;;28.07;15.72;;;;;;;-2.87;95.70;99923.44;1674748;85;21254;-80
2020/12/25 05:47:07;;;;;;;33.13;17.17;;;;;;;-2.79;95.91;99914.03;1675152;85;21219;-80
2020/12/25 05:50:14;;;;;;;28.67;15.98;;;;;;;-2.73;96.13;99910.94;1682176;85;21352;-79
2020/12/25 05:53:21;;;;;;;29.95;16.52;;;;;;;-2.67;96.31;99910.55;1683753;85;21317;-79
2020/12/25 05:56:26;;;;;;;27.65;13.80;;;;;;;-2.60;96.53;99901.13;1683576;85;21320;-79
2020/12/25 05:59:35;;;;;;;31.73;16.30;;;;;;;-2.53;96.80;99901.59;1683482;85;21356;-79
2020/12/25 06:02:44;;;;;;;28.27;15.70;;;;;;;-2.47;97.00;99895.33;1685162;85;21328;-79
2020/12/25 06:05:53;;;;;;;26.55;16.02;;;;;;;-2.42;97.22;99893.20;1684009;85;21408;-78
2020/12/25 06:09:05;;;;;;;28.02;14.80;;;;;;;-2.37;97.41;99891.06;1685362;85;21182;-79
2020/12/25 06:12:10;;;;;;;23.38;13.70;;;;;;;-2.31;97.60;99883.08;1685037;85;21262;-78
2020/12/25 06:15:20;;;;;;;28.75;15.28;;;;;;;-2.24;97.81;99880.86;1685200;85;21298;-78
2020/12/25 06:18:40;;;;;;;21.60;13.60;;;;;;;-2.19;98.01;99880.91;1660717;86;21824;-78
2020/12/25 06:21:56;;;;;;;20.97;13.08;;;;;;;-2.12;98.23;99882.67;1685044;85;21851;-79
2020/12/25 06:25:04;;;;;;;21.80;12.68;;;;;;;-2.05;98.43;99871.91;1660208;86;21323;-78
2020/12/25 06:28:09;;;;;;;25.05;13.05;;;;;;;-1.99;98.63;99870.63;1684332;85;21876;-78
2020/12/25 06:31:42;;;;;;;21.30;12.55;;;;;;;-1.95;98.79;99881.51;1685024;85;22480;-78
2020/12/25 06:34:59;;;;;;;18.65;11.90;;;;;;;-1.93;98.92;99877.77;1684828;85;21372;-79
2020/12/25 06:38:05;;;;;;;22.15;13.03;;;;;;;-1.88;99.04;99869.41;1683226;84;21356;-79
2020/12/25 06:41:11;;;;;;;21.62;11.18;;;;;;;-1.85;99.14;99866.00;1684800;85;21848;-78
2020/12/25 06:44:18;;;;;;;23.32;13.08;;;;;;;-1.79;99.23;99860.68;1684289;85;21388;-79
2020/12/25 06:47:44;;;;;;;17.70;11.65;;;;;;;-1.75;99.28;99864.86;1685150;85;21258;-79
2020/12/25 06:50:53;;;;;;;19.57;12.30;;;;;;;-1.70;99.40;99855.16;1678745;85;21353;-79
2020/12/25 06:53:59;;;;;;;19.45;12.13;;;;;;;-1.62;99.54;99862.17;1675000;85;21319;-79
2020/12/25 06:57:05;;;;;;;16.07;10.63;;;;;;;-1.54;99.68;99859.80;1639644;85;21247;-80
2020/12/25 07:00:12;;;;;;;18.73;10.75;;;;;;;-1.46;99.85;99851.19;1655767;85;21825;-80
2020/12/25 07:03:21;;;;;;;21.87;10.90;;;;;;;-1.38;99.99;99848.81;1675139;85;21309;-80
2020/12/25 07:06:31;;;;;;;16.20;10.20;;;;;;;-1.32;100.00;99838.51;1658869;86;21359;-80
2020/12/25 07:09:51;;;;;;;13.30;8.43;;;;;;;-1.23;100.00;99846.34;1674031;85;21313;-80
2020/12/25 07:12:56;;;;;;;12.63;7.73;;;;;;;-1.15;100.00;99847.13;1675482;85;21314;-80
2020/12/25 07:16:02;;;;;;;16.05;8.80;;;;;;;-1.06;100.00;99850.48;1657252;85;21313;-80
2020/12/25 07:19:08;;;;;;;12.95;7.60;;;;;;;-0.99;100.00;99839.64;1674380;85;21246;-80
2020/12/25 07:22:14;;;;;;;10.82;6.80;;;;;;;-0.93;100.00;99846.41;1675155;85;21945;-79
2020/12/25 07:25:21;;;;;;;11.15;6.97;;;;;;;-0.86;100.00;99848.98;1673913;85;21364;-80
2020/12/25 07:28:32;;;;;;;9.83;6.42;;;;;;;-0.81;100.00;99842.78;1673812;85;21340;-80
2020/12/25 07:31:39;;;;;;;10.10;5.12;;;;;;;-0.78;100.00;99835.36;1675182;85;21309;-79
2020/12/25 07:34:45;;;;;;;9.48;5.35;;;;;;;-0.74;100.00;99831.11;1674263;85;21897;-79
2020/12/25 07:38:01;;;;;;;7.92;5.17;;;;;;;-0.71;100.00;99821.45;1674226;84;21368;-79
2020/12/25 07:41:07;;;;;;;9.70;5.78;;;;;;;-0.67;100.00;99818.91;1674702;85;21266;-79
2020/12/25 07:44:13;;;;;;;6.30;4.40;;;;;;;-0.63;100.00;99818.56;1674693;85;21360;-79
2020/12/25 07:47:18;;;;;;;8.13;4.90;;;;;;;-0.57;100.00;99826.63;1675052;85;21322;-79
2020/12/25 07:50:24;;;;;;;7.10;4.45;;;;;;;-0.53;100.00;99818.71;1674544;85;21345;-80
2020/12/25 07:53:30;;;;;;;7.47;4.28;;;;;;;-0.49;100.00;99816.16;1675238;85;21751;-79
2020/12/25 07:56:39;;;;;;;6.70;4.47;;;;;;;-0.46;100.00;99806.53;1675201;85;21270;-79
2020/12/25 07:59:43;;;;;;;4.97;3.75;;;;;;;-0.42;100.00;99805.33;1674480;85;21294;-79
2020/12/25 08:02:52;;;;;;;4.47;3.50;;;;;;;-0.39;100.00;99797.01;1675034;85;21333;-79
2020/12/25 08:05:57;;;;;;;7.60;4.33;;;;;;;-0.36;100.00;99779.31;1674393;85;21294;-79
2020/12/25 08:09:09;;;;;;;4.97;3.25;;;;;;;-0.33;100.00;99792.52;1674436;85;21384;-79
2020/12/25 08:12:18;;;;;;;;;;;;;;;-0.31;100.00;99774.43;1677691;85;21316;-79
2020/12/25 08:15:23;;;;;;;4.83;3.45;;;;;;;-0.27;100.00;99769.19;1658618;86;20248;-79
2020/12/25 08:18:29;;;;;;;5.37;3.85;;;;;;;-0.24;100.00;99759.16;1658122;86;21335;-79
2020/12/25 08:21:40;;;;;;;6.58;4.37;;;;;;;-0.26;100.00;99752.56;1658109;86;21268;-78
2020/12/25 08:24:45;;;;;;;5.95;4.42;;;;;;;-0.25;100.00;99740.83;1657315;86;21323;-78
2020/12/25 08:27:52;;;;;;;5.47;4.17;;;;;;;-0.23;100.00;99736.20;1658276;86;21284;-78
2020/12/25 08:30:59;;;;;;;8.25;4.35;;;;;;;-0.22;100.00;99735.72;1658667;86;21277;-78
2020/12/25 08:34:05;;;;;;;6.37;4.08;;;;;;;-0.21;100.00;99732.89;1658737;86;21807;-78
2020/12/25 08:37:14;;;;;;;6.08;4.25;;;;;;;-0.19;100.00;99736.30;1657356;86;21343;-77
2020/12/25 08:40:22;;;;;;;6.15;4.40;;;;;;;-0.13;100.00;99726.92;1657507;86;21347;-79
2020/12/25 08:43:27;;;;;;;6.00;4.25;;;;;;;-0.09;100.00;99727.05;1658770;86;21563;-79
2020/12/25 08:46:34;;;;;;;7.25;4.70;;;;;;;-0.06;100.00;99735.70;1658770;86;21213;-79
2020/12/25 08:49:40;;;;;;;8.88;4.22;;;;;;;-0.05;100.00;99734.75;1639646;86;21209;-78
2020/12/25 08:52:46;;;;;;;8.15;4.92;;;;;;;-0.03;100.00;99725.20;1658495;86;21342;-79
2020/12/25 08:55:55;;;;;;;6.62;4.25;;;;;;;-0.01;100.00;99725.42;1658852;86;21215;-78
2020/12/25 08:59:14;;;;;;;8.28;5.45;;;;;;;0.00;100.00;99734.37;1658721;86;21736;-79
2020/12/25 09:02:21;;;;;;;9.18;4.87;;;;;;;0.03;100.00;99727.39;1658637;86;21787;-78
2020/12/25 09:05:27;;;;;;;7.00;4.83;;;;;;;0.07;100.00;99728.00;1638528;86;21256;-78
2020/12/25 09:08:34;;;;;;;9.03;4.95;;;;;;;0.11;100.00;99730.33;1657427;86;21224;-79
2020/12/25 09:11:40;;;;;;;6.85;5.10;;;;;;;0.17;100.00;99715.02;1658823;86;21367;-79
2020/12/25 09:14:46;;;;;;;10.30;4.85;;;;;;;0.22;100.00;99715.50;1657453;86;21355;-79
2020/12/25 09:17:51;;;;;;;7.05;4.58;;;;;;;0.27;100.00;99704.86;1657519;86;21335;-79
2020/12/25 09:20:56;;;;;;;6.53;4.37;;;;;;;0.32;100.00;99704.84;1657755;86;21417;-79
2020/12/25 09:24:04;;;;;;;7.15;4.87;;;;;;;0.36;100.00;99696.89;1658646;86;21323;-79
2020/12/25 09:27:11;;;;;;;6.15;4.30;;;;;;;0.41;100.00;99691.98;1658714;86;21850;-79
2020/12/25 09:30:17;;;;;;;5.78;4.40;;;;;;;0.44;100.00;99695.77;1657489;86;21311;-79
2020/12/25 09:33:22;;;;;;;6.55;4.37;;;;;;;0.45;100.00;99688.06;1657488;86;21209;-80
2020/12/25 09:36:28;;;;;;;6.37;4.12;;;;;;;0.47;100.00;99683.88;1658419;86;21362;-79
2020/12/25 09:39:35;;;;;;;9.30;5.28;;;;;;;0.50;100.00;99679.60;1658798;86;21331;-80
2020/12/25 09:42:40;;;;;;;8.05;4.95;;;;;;;0.49;100.00;99671.17;1658819;86;21803;-79
2020/12/25 09:45:46;;;;;;;8.10;5.40;;;;;;;0.51;100.00;99681.30;1657508;86;21933;-79
2020/12/25 09:48:51;;;;;;;9.58;6.17;;;;;;;0.51;100.00;99674.58;1657681;86;21334;-79
2020/12/25 09:51:58;;;;;;;8.28;6.05;;;;;;;0.49;100.00;99672.52;1657495;86;21391;-79
2020/12/25 09:55:03;;;;;;;6.67;4.70;;;;;;;0.53;100.00;99678.02;1660087;86;21366;-79
2020/12/25 09:58:09;;;;;;;7.72;5.15;;;;;;;0.57;100.00;99667.36;1661383;86;21273;-79
2020/12/25 10:01:15;;;;;;;8.75;5.87;;;;;;;0.63;100.00;99685.68;1660091;86;21399;-78
2020/12/25 10:04:21;;;;;;;10.15;5.90;;;;;;;0.66;100.00;99671.98;1660197;86;21319;-78
2020/12/25 10:07:27;;;;;;;8.63;5.75;;;;;;;0.70;100.00;99670.70;1660932;86;21335;-79
2020/12/25 10:10:34;;;;;;;7.75;5.15;;;;;;;0.71;100.00;99672.94;1661023;86;21212;-78
2020/12/25 10:13:41;;;;;;;9.98;6.15;;;;;;;0.71;100.00;99668.89;1661338;86;21192;-78
2020/12/25 10:16:46;;;;;;;10.28;6.35;;;;;;;0.73;100.00;99662.88;1661409;86;21330;-78
2020/12/25 10:19:55;;;;;;;8.48;5.30;;;;;;;0.75;100.00;99652.82;1661303;86;21212;-78
2020/12/25 10:23:00;;;;;;;10.10;6.42;;;;;;;0.78;100.00;99643.15;1660714;86;21410;-78
2020/12/25 10:26:07;;;;;;;7.92;5.60;;;;;;;0.83;100.00;99650.34;1660106;86;21328;-78
2020/12/25 10:29:13;;;;;;;11.43;5.85;;;;;;;0.85;100.00;99648.86;1661380;86;21110;-78
2020/12/25 10:32:20;;;;;;;7.97;5.72;;;;;;;0.88;100.00;99642.72;1660480;86;21351;-78
2020/12/25 10:35:27;;;;;;;9.23;5.60;;;;;;;0.91;100.00;99650.55;1660385;86;21339;-78
2020/12/25 10:38:32;;;;;;;6.50;4.95;;;;;;;0.97;100.00;99658.59;1661019;86;21726;-78
2020/12/25 10:41:39;;;;;;;7.85;4.92;;;;;;;1.06;100.00;99663.19;1660687;86;21406;-78
2020/12/25 10:44:45;;;;;;;7.37;4.97;;;;;;;1.12;100.00;99646.50;1661408;86;21881;-78
2020/12/25 10:47:51;;;;;;;6.45;4.30;;;;;;;1.16;100.00;99649.29;1660049;86;21319;-79
2020/12/25 10:50:56;;;;;;;5.30;4.15;;;;;;;1.23;100.00;99649.63;1661271;86;21779;-78
2020/12/25 10:54:02;;;;;;;6.72;4.72;;;;;;;1.22;100.00;99647.44;1660318;86;21402;-78
2020/12/25 10:57:08;;;;;;;7.22;4.67;;;;;;;1.23;100.00;99643.75;1658721;86;21315;-78
2020/12/25 11:00:14;;;;;;;7.97;5.10;;;;;;;1.20;100.00;99642.66;1658635;86;21367;-78
2020/12/25 11:03:19;;;;;;;7.00;4.37;;;;;;;1.19;100.00;99636.91;1658801;86;21353;-78
2020/12/25 11:06:25;;;;;;;8.05;5.00;;;;;;;1.22;100.00;99642.05;1658827;86;21859;-78
2020/12/25 11:09:37;;;;;;;9.85;5.87;;;;;;;1.23;100.00;99635.66;1658452;86;21358;-78
2020/12/25 11:13:02;;;;;;;10.55;7.62;;;;;;;1.26;100.00;99627.79;1657796;86;21510;-78
2020/12/25 11:16:39;;;;;;;7.92;5.45;;;;;;;1.24;100.00;99623.05;1658923;86;21213;-78
2020/12/25 11:19:44;;;;;;;10.05;5.17;;;;;;;1.24;100.00;99613.11;1658819;86;21358;-78
2020/12/25 11:22:51;;;;;;;11.38;6.00;;;;;;;1.28;100.00;99611.02;1657690;86;21244;-78
2020/12/25 11:25:56;;;;;;;13.08;5.70;;;;;;;1.27;100.00;99606.59;1658820;86;21315;-78
2020/12/25 11:29:07;;;;;;;11.80;6.37;;;;;;;1.28;100.00;99601.09;1658701;86;21204;-78
2020/12/25 11:32:12;;;;;;;9.30;5.75;;;;;;;1.26;100.00;99600.35;1658406;86;21323;-78
2020/12/25 11:35:17;;;;;;;8.10;5.55;;;;;;;1.24;100.00;99604.19;1657503;86;21323;-78
2020/12/25 11:38:22;;;;;;;7.53;5.62;;;;;;;1.27;100.00;99599.39;1657830;86;21354;-78
2020/12/25 11:41:30;;;;;;;7.97;4.87;;;;;;;1.31;100.00;99601.30;1658593;86;21376;-78
2020/12/25 11:44:36;;;;;;;9.80;5.50;;;;;;;1.32;100.00;99589.55;1658722;86;21308;-78
2020/12/25 11:47:41;;;;;;;7.28;5.08;;;;;;;1.33;100.00;99594.45;1657562;86;21902;-77
2020/12/25 11:50:48;;;;;;;7.72;5.05;;;;;;;1.33;100.00;99602.53;1658295;86;21338;-78
2020/12/25 11:53:53;;;;;;;5.95;4.40;;;;;;;1.34;100.00;99594.80;1658196;86;21366;-78
2020/12/25 11:57:01;;;;;;;7.78;4.70;;;;;;;1.37;100.00;99595.39;1657636;86;21236;-79
2020/12/25 12:00:08;;;;;;;6.15;4.53;;;;;;;1.40;100.00;99597.80;1657523;86;21208;-79
2020/12/25 12:03:16;;;;;;;6.10;5.03;;;;;;;1.42;100.00;99582.36;1657964;86;21355;-79
2020/12/25 12:06:30;;;;;;;8.05;5.67;;;;;;;1.43;100.00;99585.91;1658853;86;21371;-80
2020/12/25 12:09:36;;;;;;;8.38;5.90;;;;;;;1.45;100.00;99582.06;1658452;86;21890;-79
2020/12/25 12:12:43;;;;;;;8.93;6.80;;;;;;;1.49;100.00;99578.61;1658372;86;21804;-80
2020/12/25 12:15:48;;;;;;;8.18;6.05;;;;;;;1.52;100.00;99567.57;1658556;86;21319;-79
2020/12/25 12:18:54;;;;;;;8.33;6.10;;;;;;;1.53;100.00;99574.66;1658610;86;21341;-79
2020/12/25 12:22:00;;;;;;;9.38;6.10;;;;;;;1.58;100.00;99563.47;1658382;86;21346;-79
2020/12/25 12:25:08;;;;;;;15.65;6.37;;;;;;;1.60;100.00;99569.09;1657733;86;21355;-80
2020/12/25 12:28:14;;;;;;;13.25;7.10;;;;;;;1.63;100.00;99575.54;1658351;86;21862;-79
2020/12/25 12:31:19;;;;;;;10.43;6.35;;;;;;;1.67;100.00;99572.93;1658461;86;21846;-79
2020/12/25 12:34:25;;;;;;;14.38;6.97;;;;;;;1.69;100.00;99578.17;1658149;86;21370;-78
2020/12/25 12:37:31;;;;;;;12.45;6.90;;;;;;;1.70;100.00;99574.02;1657052;86;21240;-78
2020/12/25 12:40:36;;;;;;;13.62;7.00;;;;;;;1.73;100.00;99567.48;1657933;86;21381;-79
2020/12/25 12:43:43;;;;;;;10.80;5.72;;;;;;;1.76;100.00;99581.55;1658003;86;21347;-79
2020/12/25 12:46:50;;;;;;;10.32;5.70;;;;;;;1.81;100.00;99573.54;1657601;86;21398;-79
2020/12/25 12:49:56;;;;;;;11.60;5.90;;;;;;;1.82;100.00;99580.13;1657560;86;21316;-79
2020/12/25 12:53:02;;;;;;;9.80;6.03;;;;;;;1.82;100.00;99581.98;1657596;86;21257;-79
2020/12/25 12:56:09;;;;;;;13.35;6.50;;;;;;;1.85;100.00;99592.00;1658244;86;21442;-79
2020/12/25 12:59:15;;;;;;;7.75;5.92;;;;;;;1.89;100.00;99589.89;1686642;85;21224;-79
2020/12/25 13:02:23;;;;;;;10.88;6.42;;;;;;;1.93;100.00;99595.34;1686689;85;21702;-79
2020/12/25 13:05:28;;;;;;;9.80;6.37;;;;;;;1.98;100.00;99595.30;1688001;85;21331;-79
2020/12/25 13:08:34;;;;;;;6.78;5.83;;;;;;;2.01;100.00;99603.59;1687912;85;21316;-79
2020/12/25 13:11:40;;;;;;;8.80;6.65;;;;;;;2.07;100.00;99606.23;1686741;85;21276;-79
2020/12/25 13:14:47;;;;;;;8.18;6.03;;;;;;;2.10;100.00;99612.20;1686777;85;21308;-79
2020/12/25 13:17:53;;;;;;;9.68;5.83;;;;;;;2.14;100.00;99608.74;1687952;85;21335;-78
2020/12/25 13:20:59;;;;;;;8.50;5.30;;;;;;;2.19;100.00;99600.58;1687896;85;21744;-79
2020/12/25 13:24:04;;;;;;;10.30;5.83;;;;;;;2.23;100.00;99593.91;1687203;85;21760;-80
2020/12/25 13:27:04;;;;;;;10.20;6.33;;;;;;;2.25;100.00;99585.16;1687803;85;21494;-79
2020/12/25 13:30:10;;;;;;;;;;;;;;;2.26;100.00;99585.55;1690575;85;21397;-80
2020/12/25 13:33:14;;;;;;;9.95;6.50;;;;;;;2.29;100.00;99579.84;1687915;85;20245;-79
2020/12/25 13:36:19;;;;;;;14.33;6.70;;;;;;;2.32;100.00;99588.67;1687934;85;21248;-79
2020/12/25 13:39:25;;;;;;;13.38;8.53;;;;;;;2.35;100.00;99593.77;1687962;85;21847;-80
2020/12/25 13:42:32;;;;;;;10.80;7.37;;;;;;;2.36;100.00;99588.25;1686442;85;21343;-79
2020/12/25 13:45:38;;;;;;;11.40;7.05;;;;;;;2.39;100.00;99599.23;1687897;85;21319;-79
2020/12/25 13:48:43;;;;;;;14.20;8.13;;;;;;;2.43;100.00;99592.06;1687952;85;21212;-79
2020/12/25 13:51:50;;;;;;;17.02;8.65;;;;;;;2.47;100.00;99588.09;1687951;85;21200;-79
2020/12/25 13:54:58;;;;;;;16.40;8.65;;;;;;;2.49;100.00;99594.22;1686554;84;21212;-79
2020/12/25 13:58:05;;;;;;;20.00;10.25;;;;;;;2.52;100.00;99597.12;1686179;85;21364;-79
2020/12/25 14:01:14;;;;;;;18.37;9.08;;;;;;;2.55;100.00;99596.84;1630670;88;21330;-79
2020/12/25 14:04:21;;;;;;;21.57;11.85;;;;;;;2.57;100.00;99596.19;1631417;88;21264;-79
2020/12/25 14:07:28;;;;;;;20.02;11.12;;;;;;;2.59;100.00;99596.91;1632007;88;21311;-79
2020/12/25 14:10:35;;;;;;;26.02;13.30;;;;;;;2.63;100.00;99594.76;1632061;88;21319;-79
2020/12/25 14:13:40;;;;;;;22.58;11.83;;;;;;;2.63;100.00;99589.36;1632002;88;21195;-79
2020/12/25 14:16:47;;;;;;;29.48;13.58;;;;;;;2.67;100.00;99593.48;1630923;88;21306;-79
2020/12/25 14:19:53;;;;;;;21.48;10.78;;;;;;;2.71;100.00;99597.61;1631991;88;21679;-80
2020/12/25 14:23:00;;;;;;;19.20;11.35;;;;;;;2.77;100.00;99593.82;1631731;88;21748;-79
2020/12/25 14:26:05;;;;;;;18.25;11.10;;;;;;;2.81;100.00;99592.54;1631666;88;21303;-79